sensor_id;sensor_type;location;lat;lon;timestamp;P1;durP1;ratioP1;P2;durP2;ratioP2
47365;SDS011;33105;47.964;7.982;2022-07-04T00:02:41;2.58;;;1.08;;
47365;SDS011;33105;47.964;7.982;2022-07-04T00:05:44;2.40;;;1.00;;
47365;SDS011;33105;47.964;7.982;2022-07-04T00:08:45;2.97;;;1.00;;
47365;SDS011;33105;47.964;7.982;2022-07-04T00:11:46;2.33;;;1.00;;
47365;SDS011;33105;47.964;7.982;2022-07-04T00:14:48;4.63;;;1.13;;
47365;SDS011;33105;47.964;7.982;2022-07-04T00:17:49;4.00;;;1.00;;
47365;SDS011;33105;47.964;7.982;2022-07-04T00:20:51;2.97;;;0.95;;
47365;SDS011;33105;47.964;7.982;2022-07-04T00:23:54;5.40;;;1.00;;
47365;SDS011;33105;47.964;7.982;2022-07-04T00:26:55;1.70;;;0.80;;
47365;SDS011;33105;47.964;7.982;2022-07-04T00:29:57;7.22;;;1.20;;
47365;SDS011;33105;47.964;7.982;2022-07-04T00:32:59;1.75;;;0.80;;
47365;SDS011;33105;47.964;7.982;2022-07-04T00:36:00;4.65;;;1.00;;
47365;SDS011;33105;47.964;7.982;2022-07-04T00:39:02;5.82;;;1.00;;
47365;SDS011;33105;47.964;7.982;2022-07-04T00:42:04;6.45;;;1.23;;
47365;SDS011;33105;47.964;7.982;2022-07-04T00:45:06;4.45;;;1.10;;
47365;SDS011;33105;47.964;7.982;2022-07-04T00:48:08;6.57;;;1.08;;
47365;SDS011;33105;47.964;7.982;2022-07-04T00:51:09;3.08;;;1.00;;
47365;SDS011;33105;47.964;7.982;2022-07-04T00:54:11;4.47;;;0.90;;
47365;SDS011;33105;47.964;7.982;2022-07-04T00:57:14;3.30;;;1.13;;
47365;SDS011;33105;47.964;7.982;2022-07-04T01:00:17;2.15;;;1.00;;
47365;SDS011;33105;47.964;7.982;2022-07-04T01:03:19;4.43;;;0.90;;
47365;SDS011;33105;47.964;7.982;2022-07-04T01:06:21;3.65;;;0.90;;
47365;SDS011;33105;47.964;7.982;2022-07-04T01:09:22;2.03;;;0.95;;
47365;SDS011;33105;47.964;7.982;2022-07-04T01:12:28;2.75;;;1.08;;
47365;SDS011;33105;47.964;7.982;2022-07-04T01:15:30;2.25;;;0.93;;
47365;SDS011;33105;47.964;7.982;2022-07-04T01:18:31;3.92;;;1.00;;
47365;SDS011;33105;47.964;7.982;2022-07-04T01:21:33;1.63;;;0.80;;
47365;SDS011;33105;47.964;7.982;2022-07-04T01:24:34;4.50;;;1.13;;
47365;SDS011;33105;47.964;7.982;2022-07-04T01:27:35;3.67;;;1.20;;
47365;SDS011;33105;47.964;7.982;2022-07-04T01:30:37;3.53;;;0.88;;
47365;SDS011;33105;47.964;7.982;2022-07-04T01:33:39;1.75;;;0.90;;
47365;SDS011;33105;47.964;7.982;2022-07-04T01:36:41;2.58;;;0.90;;
47365;SDS011;33105;47.964;7.982;2022-07-04T01:39:43;5.57;;;0.90;;
47365;SDS011;33105;47.964;7.982;2022-07-04T01:42:44;3.88;;;1.00;;
47365;SDS011;33105;47.964;7.982;2022-07-04T01:45:46;2.60;;;1.00;;
47365;SDS011;33105;47.964;7.982;2022-07-04T01:48:48;1.50;;;0.90;;
47365;SDS011;33105;47.964;7.982;2022-07-04T01:51:50;4.03;;;1.00;;
47365;SDS011;33105;47.964;7.982;2022-07-04T01:54:52;3.50;;;1.38;;
47365;SDS011;33105;47.964;7.982;2022-07-04T01:57:54;1.23;;;0.90;;
47365;SDS011;33105;47.964;7.982;2022-07-04T02:00:55;2.33;;;1.00;;
47365;SDS011;33105;47.964;7.982;2022-07-04T02:04:15;3.13;;;0.80;;
47365;SDS011;33105;47.964;7.982;2022-07-04T02:07:17;3.63;;;0.90;;
47365;SDS011;33105;47.964;7.982;2022-07-04T02:10:20;2.53;;;0.90;;
47365;SDS011;33105;47.964;7.982;2022-07-04T02:13:21;4.10;;;1.00;;
47365;SDS011;33105;47.964;7.982;2022-07-04T02:16:22;2.75;;;0.90;;
47365;SDS011;33105;47.964;7.982;2022-07-04T02:19:23;2.25;;;1.02;;
47365;SDS011;33105;47.964;7.982;2022-07-04T02:22:25;1.33;;;0.90;;
47365;SDS011;33105;47.964;7.982;2022-07-04T02:25:26;2.50;;;1.00;;
47365;SDS011;33105;47.964;7.982;2022-07-04T02:28:29;11.40;;;1.10;;
47365;SDS011;33105;47.964;7.982;2022-07-04T02:31:31;2.95;;;0.93;;
47365;SDS011;33105;47.964;7.982;2022-07-04T02:34:32;3.47;;;1.20;;
47365;SDS011;33105;47.964;7.982;2022-07-04T02:37:34;3.75;;;1.15;;
47365;SDS011;33105;47.964;7.982;2022-07-04T02:40:36;4.40;;;1.25;;
47365;SDS011;33105;47.964;7.982;2022-07-04T02:43:37;1.63;;;1.10;;
47365;SDS011;33105;47.964;7.982;2022-07-04T02:46:39;4.60;;;1.13;;
47365;SDS011;33105;47.964;7.982;2022-07-04T02:49:40;4.35;;;1.10;;
47365;SDS011;33105;47.964;7.982;2022-07-04T02:52:42;4.38;;;1.52;;
47365;SDS011;33105;47.964;7.982;2022-07-04T02:55:43;5.22;;;1.33;;
47365;SDS011;33105;47.964;7.982;2022-07-04T02:58:44;2.50;;;1.20;;
47365;SDS011;33105;47.964;7.982;2022-07-04T03:01:46;1.98;;;1.13;;
47365;SDS011;33105;47.964;7.982;2022-07-04T03:04:47;4.63;;;1.50;;
47365;SDS011;33105;47.964;7.982;2022-07-04T03:07:48;4.15;;;1.40;;
47365;SDS011;33105;47.964;7.982;2022-07-04T03:10:49;2.25;;;1.45;;
47365;SDS011;33105;47.964;7.982;2022-07-04T03:13:52;3.75;;;1.30;;
47365;SDS011;33105;47.964;7.982;2022-07-04T03:16:53;3.60;;;1.23;;
47365;SDS011;33105;47.964;7.982;2022-07-04T03:19:56;3.95;;;1.10;;
47365;SDS011;33105;47.964;7.982;2022-07-04T03:22:58;2.30;;;1.17;;
47365;SDS011;33105;47.964;7.982;2022-07-04T03:26:00;1.48;;;0.93;;
47365;SDS011;33105;47.964;7.982;2022-07-04T03:29:01;1.67;;;1.00;;
47365;SDS011;33105;47.964;7.982;2022-07-04T03:32:03;6.10;;;1.20;;
47365;SDS011;33105;47.964;7.982;2022-07-04T03:35:05;4.40;;;1.20;;
47365;SDS011;33105;47.964;7.982;2022-07-04T03:38:07;2.97;;;1.13;;
47365;SDS011;33105;47.964;7.982;2022-07-04T03:41:08;6.30;;;1.98;;
47365;SDS011;33105;47.964;7.982;2022-07-04T03:44:09;7.75;;;3.22;;
47365;SDS011;33105;47.964;7.982;2022-07-04T03:47:11;7.70;;;2.80;;
47365;SDS011;33105;47.964;7.982;2022-07-04T03:50:12;5.57;;;1.92;;
47365;SDS011;33105;47.964;7.982;2022-07-04T03:53:13;6.05;;;1.40;;
47365;SDS011;33105;47.964;7.982;2022-07-04T03:56:16;1.92;;;1.05;;
47365;SDS011;33105;47.964;7.982;2022-07-04T03:59:17;2.88;;;1.20;;
47365;SDS011;33105;47.964;7.982;2022-07-04T04:02:18;3.00;;;1.20;;
47365;SDS011;33105;47.964;7.982;2022-07-04T04:05:19;2.97;;;1.20;;
47365;SDS011;33105;47.964;7.982;2022-07-04T04:08:27;1.63;;;0.90;;
47365;SDS011;33105;47.964;7.982;2022-07-04T04:11:28;4.05;;;1.30;;
47365;SDS011;33105;47.964;7.982;2022-07-04T04:14:32;2.80;;;1.25;;
47365;SDS011;33105;47.964;7.982;2022-07-04T04:17:33;1.55;;;0.95;;
47365;SDS011;33105;47.964;7.982;2022-07-04T04:20:34;1.63;;;1.10;;
47365;SDS011;33105;47.964;7.982;2022-07-04T04:23:35;3.20;;;1.10;;
47365;SDS011;33105;47.964;7.982;2022-07-04T04:26:37;3.30;;;1.15;;
47365;SDS011;33105;47.964;7.982;2022-07-04T04:29:38;2.35;;;1.20;;
47365;SDS011;33105;47.964;7.982;2022-07-04T04:32:40;5.05;;;1.08;;
47365;SDS011;33105;47.964;7.982;2022-07-04T04:35:41;1.67;;;1.30;;
47365;SDS011;33105;47.964;7.982;2022-07-04T04:38:43;1.90;;;1.30;;
47365;SDS011;33105;47.964;7.982;2022-07-04T04:41:45;1.92;;;1.25;;
47365;SDS011;33105;47.964;7.982;2022-07-04T04:44:46;2.70;;;1.02;;
47365;SDS011;33105;47.964;7.982;2022-07-04T04:47:47;2.67;;;1.10;;
47365;SDS011;33105;47.964;7.982;2022-07-04T04:50:48;2.67;;;0.93;;
47365;SDS011;33105;47.964;7.982;2022-07-04T04:53:50;4.75;;;1.30;;
47365;SDS011;33105;47.964;7.982;2022-07-04T04:56:52;1.70;;;1.10;;
47365;SDS011;33105;47.964;7.982;2022-07-04T04:59:53;2.72;;;1.10;;
47365;SDS011;33105;47.964;7.982;2022-07-04T05:02:54;2.58;;;1.30;;
47365;SDS011;33105;47.964;7.982;2022-07-04T05:05:56;2.90;;;1.63;;
47365;SDS011;33105;47.964;7.982;2022-07-04T05:08:57;2.40;;;1.50;;
47365;SDS011;33105;47.964;7.982;2022-07-04T05:11:58;2.55;;;1.20;;
47365;SDS011;33105;47.964;7.982;2022-07-04T05:15:00;3.70;;;1.35;;
47365;SDS011;33105;47.964;7.982;2022-07-04T05:18:02;3.83;;;1.90;;
47365;SDS011;33105;47.964;7.982;2022-07-04T05:21:04;2.92;;;1.38;;
47365;SDS011;33105;47.964;7.982;2022-07-04T05:24:05;2.85;;;1.50;;
47365;SDS011;33105;47.964;7.982;2022-07-04T05:27:07;3.60;;;1.30;;
47365;SDS011;33105;47.964;7.982;2022-07-04T05:30:08;3.20;;;1.23;;
47365;SDS011;33105;47.964;7.982;2022-07-04T05:33:10;2.45;;;1.40;;
47365;SDS011;33105;47.964;7.982;2022-07-04T05:36:12;3.20;;;1.30;;
47365;SDS011;33105;47.964;7.982;2022-07-04T05:39:13;5.68;;;1.30;;
47365;SDS011;33105;47.964;7.982;2022-07-04T05:42:14;3.78;;;1.25;;
47365;SDS011;33105;47.964;7.982;2022-07-04T05:45:16;6.10;;;1.70;;
47365;SDS011;33105;47.964;7.982;2022-07-04T05:48:17;2.22;;;1.35;;
47365;SDS011;33105;47.964;7.982;2022-07-04T05:51:19;3.50;;;1.35;;
47365;SDS011;33105;47.964;7.982;2022-07-04T05:54:20;6.78;;;1.70;;
47365;SDS011;33105;47.964;7.982;2022-07-04T05:57:22;5.90;;;2.22;;
47365;SDS011;33105;47.964;7.982;2022-07-04T06:00:24;8.00;;;2.35;;
47365;SDS011;33105;47.964;7.982;2022-07-04T06:03:25;6.03;;;1.77;;
47365;SDS011;33105;47.964;7.982;2022-07-04T06:06:27;5.18;;;1.48;;
47365;SDS011;33105;47.964;7.982;2022-07-04T06:09:29;4.88;;;1.42;;
47365;SDS011;33105;47.964;7.982;2022-07-04T06:12:30;3.17;;;1.48;;
47365;SDS011;33105;47.964;7.982;2022-07-04T06:15:31;6.80;;;1.73;;
47365;SDS011;33105;47.964;7.982;2022-07-04T06:18:33;5.95;;;1.30;;
47365;SDS011;33105;47.964;7.982;2022-07-04T06:21:34;4.40;;;1.20;;
47365;SDS011;33105;47.964;7.982;2022-07-04T06:24:36;4.05;;;1.42;;
47365;SDS011;33105;47.964;7.982;2022-07-04T06:27:37;4.40;;;2.40;;
47365;SDS011;33105;47.964;7.982;2022-07-04T06:30:38;6.97;;;3.90;;
47365;SDS011;33105;47.964;7.982;2022-07-04T06:33:39;4.90;;;2.17;;
47365;SDS011;33105;47.964;7.982;2022-07-04T06:36:59;3.20;;;2.10;;
47365;SDS011;33105;47.964;7.982;2022-07-04T06:40:00;4.25;;;2.22;;
47365;SDS011;33105;47.964;7.982;2022-07-04T06:43:01;6.43;;;1.67;;
47365;SDS011;33105;47.964;7.982;2022-07-04T06:46:04;3.53;;;1.20;;
47365;SDS011;33105;47.964;7.982;2022-07-04T06:49:05;4.82;;;1.20;;
47365;SDS011;33105;47.964;7.982;2022-07-04T06:52:07;2.83;;;1.05;;
47365;SDS011;33105;47.964;7.982;2022-07-04T06:55:08;3.40;;;1.15;;
47365;SDS011;33105;47.964;7.982;2022-07-04T06:58:10;4.50;;;1.13;;
47365;SDS011;33105;47.964;7.982;2022-07-04T07:01:14;2.95;;;1.40;;
47365;SDS011;33105;47.964;7.982;2022-07-04T07:04:16;2.22;;;1.10;;
47365;SDS011;33105;47.964;7.982;2022-07-04T07:07:17;3.10;;;1.20;;
47365;SDS011;33105;47.964;7.982;2022-07-04T07:10:18;2.40;;;1.30;;
47365;SDS011;33105;47.964;7.982;2022-07-04T07:13:20;4.75;;;1.15;;
47365;SDS011;33105;47.964;7.982;2022-07-04T07:16:21;3.67;;;1.23;;
47365;SDS011;33105;47.964;7.982;2022-07-04T07:19:23;5.28;;;1.33;;
47365;SDS011;33105;47.964;7.982;2022-07-04T07:22:24;1.73;;;1.08;;
47365;SDS011;33105;47.964;7.982;2022-07-04T07:25:26;3.20;;;1.13;;
47365;SDS011;33105;47.964;7.982;2022-07-04T07:28:27;4.55;;;1.10;;
47365;SDS011;33105;47.964;7.982;2022-07-04T07:31:28;2.08;;;1.30;;
47365;SDS011;33105;47.964;7.982;2022-07-04T07:34:30;3.40;;;1.27;;
47365;SDS011;33105;47.964;7.982;2022-07-04T07:37:31;2.67;;;1.10;;
47365;SDS011;33105;47.964;7.982;2022-07-04T07:40:32;5.28;;;1.40;;
47365;SDS011;33105;47.964;7.982;2022-07-04T07:43:34;2.97;;;1.35;;
47365;SDS011;33105;47.964;7.982;2022-07-04T07:46:36;2.10;;;0.98;;
47365;SDS011;33105;47.964;7.982;2022-07-04T07:49:37;4.55;;;1.10;;
47365;SDS011;33105;47.964;7.982;2022-07-04T07:52:38;6.05;;;1.20;;
47365;SDS011;33105;47.964;7.982;2022-07-04T07:55:40;3.65;;;1.17;;
47365;SDS011;33105;47.964;7.982;2022-07-04T07:58:41;7.53;;;1.30;;
47365;SDS011;33105;47.964;7.982;2022-07-04T08:01:42;2.63;;;0.90;;
47365;SDS011;33105;47.964;7.982;2022-07-04T08:04:44;1.85;;;1.05;;
47365;SDS011;33105;47.964;7.982;2022-07-04T08:07:46;7.40;;;1.30;;
47365;SDS011;33105;47.964;7.982;2022-07-04T08:10:47;4.15;;;1.05;;
47365;SDS011;33105;47.964;7.982;2022-07-04T08:13:48;3.92;;;1.30;;
47365;SDS011;33105;47.964;7.982;2022-07-04T08:16:50;3.35;;;1.20;;
47365;SDS011;33105;47.964;7.982;2022-07-04T08:19:51;5.82;;;1.15;;
47365;SDS011;33105;47.964;7.982;2022-07-04T08:22:53;6.38;;;1.20;;
47365;SDS011;33105;47.964;7.982;2022-07-04T08:25:55;2.45;;;1.10;;
47365;SDS011;33105;47.964;7.982;2022-07-04T08:28:56;5.43;;;1.13;;
47365;SDS011;33105;47.964;7.982;2022-07-04T08:31:58;6.60;;;1.35;;
47365;SDS011;33105;47.964;7.982;2022-07-04T08:35:00;6.15;;;1.23;;
47365;SDS011;33105;47.964;7.982;2022-07-04T08:38:02;3.50;;;1.23;;
47365;SDS011;33105;47.964;7.982;2022-07-04T08:41:03;3.80;;;1.13;;
47365;SDS011;33105;47.964;7.982;2022-07-04T08:44:06;5.57;;;1.20;;
47365;SDS011;33105;47.964;7.982;2022-07-04T08:47:12;5.22;;;1.25;;
47365;SDS011;33105;47.964;7.982;2022-07-04T08:50:25;4.72;;;1.25;;
47365;SDS011;33105;47.964;7.982;2022-07-04T08:53:30;21.63;;;1.75;;
47365;SDS011;33105;47.964;7.982;2022-07-04T08:56:34;7.65;;;1.40;;
47365;SDS011;33105;47.964;7.982;2022-07-04T08:59:54;3.22;;;1.00;;
47365;SDS011;33105;47.964;7.982;2022-07-04T09:02:57;4.40;;;0.90;;
47365;SDS011;33105;47.964;7.982;2022-07-04T09:06:02;4.20;;;1.00;;
47365;SDS011;33105;47.964;7.982;2022-07-04T09:09:04;5.32;;;1.33;;
47365;SDS011;33105;47.964;7.982;2022-07-04T09:12:09;5.32;;;1.33;;
47365;SDS011;33105;47.964;7.982;2022-07-04T09:15:10;2.67;;;1.10;;
47365;SDS011;33105;47.964;7.982;2022-07-04T09:18:19;2.72;;;0.85;;
47365;SDS011;33105;47.964;7.982;2022-07-04T09:21:45;5.18;;;1.10;;
47365;SDS011;33105;47.964;7.982;2022-07-04T09:24:49;4.40;;;1.30;;
47365;SDS011;33105;47.964;7.982;2022-07-04T09:27:53;6.95;;;1.40;;
47365;SDS011;33105;47.964;7.982;2022-07-04T09:30:55;4.25;;;1.25;;
47365;SDS011;33105;47.964;7.982;2022-07-04T09:33:58;4.18;;;1.35;;
47365;SDS011;33105;47.964;7.982;2022-07-04T09:37:00;1.98;;;0.85;;
47365;SDS011;33105;47.964;7.982;2022-07-04T09:40:03;3.38;;;1.17;;
47365;SDS011;33105;47.964;7.982;2022-07-04T09:43:10;8.30;;;1.30;;
47365;SDS011;33105;47.964;7.982;2022-07-04T09:46:12;4.68;;;0.90;;
47365;SDS011;33105;47.964;7.982;2022-07-04T09:49:23;5.22;;;0.90;;
47365;SDS011;33105;47.964;7.982;2022-07-04T09:52:24;1.45;;;0.90;;
47365;SDS011;33105;47.964;7.982;2022-07-04T09:55:29;4.80;;;1.13;;
47365;SDS011;33105;47.964;7.982;2022-07-04T09:58:31;5.63;;;1.35;;
47365;SDS011;33105;47.964;7.982;2022-07-04T10:01:33;1.58;;;1.10;;
47365;SDS011;33105;47.964;7.982;2022-07-04T10:04:45;4.47;;;1.05;;
47365;SDS011;33105;47.964;7.982;2022-07-04T10:07:47;4.80;;;1.55;;
47365;SDS011;33105;47.964;7.982;2022-07-04T10:10:49;6.32;;;1.38;;
47365;SDS011;33105;47.964;7.982;2022-07-04T10:13:50;4.25;;;1.30;;
47365;SDS011;33105;47.964;7.982;2022-07-04T10:16:52;5.20;;;1.20;;
47365;SDS011;33105;47.964;7.982;2022-07-04T10:19:55;2.42;;;1.05;;
47365;SDS011;33105;47.964;7.982;2022-07-04T10:22:57;3.13;;;1.10;;
47365;SDS011;33105;47.964;7.982;2022-07-04T10:25:59;3.72;;;1.23;;
47365;SDS011;33105;47.964;7.982;2022-07-04T10:29:01;2.22;;;1.10;;
47365;SDS011;33105;47.964;7.982;2022-07-04T10:32:02;3.38;;;1.00;;
47365;SDS011;33105;47.964;7.982;2022-07-04T10:35:04;1.75;;;1.00;;
47365;SDS011;33105;47.964;7.982;2022-07-04T10:38:07;2.15;;;1.10;;
47365;SDS011;33105;47.964;7.982;2022-07-04T10:41:08;1.95;;;1.00;;
47365;SDS011;33105;47.964;7.982;2022-07-04T10:44:10;3.35;;;1.10;;
47365;SDS011;33105;47.964;7.982;2022-07-04T10:47:23;2.20;;;1.02;;
47365;SDS011;33105;47.964;7.982;2022-07-04T10:50:28;2.53;;;1.00;;
47365;SDS011;33105;47.964;7.982;2022-07-04T10:53:30;4.18;;;1.40;;
47365;SDS011;33105;47.964;7.982;2022-07-04T10:59:36;7.15;;;1.35;;
47365;SDS011;33105;47.964;7.982;2022-07-04T11:02:37;2.97;;;1.15;;
47365;SDS011;33105;47.964;7.982;2022-07-04T11:05:39;4.40;;;1.30;;
47365;SDS011;33105;47.964;7.982;2022-07-04T11:12:22;4.72;;;1.05;;
47365;SDS011;33105;47.964;7.982;2022-07-04T11:18:37;2.03;;;1.10;;
47365;SDS011;33105;47.964;7.982;2022-07-04T11:24:40;2.42;;;1.10;;
47365;SDS011;33105;47.964;7.982;2022-07-04T11:27:42;2.72;;;1.15;;
47365;SDS011;33105;47.964;7.982;2022-07-04T11:30:50;4.30;;;1.05;;
47365;SDS011;33105;47.964;7.982;2022-07-04T11:33:55;4.20;;;1.33;;
47365;SDS011;33105;47.964;7.982;2022-07-04T11:36:56;5.10;;;1.45;;
47365;SDS011;33105;47.964;7.982;2022-07-04T11:39:59;2.15;;;0.98;;
47365;SDS011;33105;47.964;7.982;2022-07-04T11:43:20;2.17;;;1.00;;
47365;SDS011;33105;47.964;7.982;2022-07-04T11:46:41;7.93;;;1.17;;
47365;SDS011;33105;47.964;7.982;2022-07-04T11:49:44;3.90;;;1.00;;
47365;SDS011;33105;47.964;7.982;2022-07-04T11:52:52;3.95;;;1.20;;
47365;SDS011;33105;47.964;7.982;2022-07-04T11:55:55;3.33;;;1.10;;
47365;SDS011;33105;47.964;7.982;2022-07-04T11:58:57;5.18;;;1.27;;
47365;SDS011;33105;47.964;7.982;2022-07-04T12:02:12;5.50;;;1.20;;
47365;SDS011;33105;47.964;7.982;2022-07-04T12:05:15;4.75;;;1.20;;
47365;SDS011;33105;47.964;7.982;2022-07-04T12:08:17;2.58;;;1.13;;
47365;SDS011;33105;47.964;7.982;2022-07-04T12:11:26;1.80;;;1.10;;
47365;SDS011;33105;47.964;7.982;2022-07-04T12:15:02;1.85;;;1.08;;
47365;SDS011;33105;47.964;7.982;2022-07-04T12:18:04;1.50;;;0.90;;
47365;SDS011;33105;47.964;7.982;2022-07-04T12:21:11;4.30;;;1.00;;
47365;SDS011;33105;47.964;7.982;2022-07-04T12:24:16;3.42;;;1.00;;
47365;SDS011;33105;47.964;7.982;2022-07-04T12:27:19;4.35;;;1.00;;
47365;SDS011;33105;47.964;7.982;2022-07-04T12:30:20;2.47;;;1.10;;
47365;SDS011;33105;47.964;7.982;2022-07-04T12:33:24;3.15;;;1.10;;
47365;SDS011;33105;47.964;7.982;2022-07-04T12:36:27;12.95;;;1.45;;
47365;SDS011;33105;47.964;7.982;2022-07-04T12:39:32;4.05;;;1.23;;
47365;SDS011;33105;47.964;7.982;2022-07-04T12:42:41;4.32;;;0.90;;
47365;SDS011;33105;47.964;7.982;2022-07-04T12:45:43;2.63;;;1.13;;
47365;SDS011;33105;47.964;7.982;2022-07-04T12:48:50;6.82;;;1.40;;
47365;SDS011;33105;47.964;7.982;2022-07-04T12:51:52;3.03;;;1.10;;
47365;SDS011;33105;47.964;7.982;2022-07-04T12:58:15;7.10;;;1.00;;
47365;SDS011;33105;47.964;7.982;2022-07-04T13:01:17;5.97;;;1.20;;
47365;SDS011;33105;47.964;7.982;2022-07-04T13:04:18;4.70;;;1.20;;
47365;SDS011;33105;47.964;7.982;2022-07-04T13:07:19;4.88;;;1.20;;
47365;SDS011;33105;47.964;7.982;2022-07-04T13:10:21;6.85;;;1.10;;
47365;SDS011;33105;47.964;7.982;2022-07-04T13:13:22;6.38;;;1.10;;
47365;SDS011;33105;47.964;7.982;2022-07-04T13:16:23;3.92;;;1.00;;
47365;SDS011;33105;47.964;7.982;2022-07-04T13:19:24;3.75;;;1.10;;
47365;SDS011;33105;47.964;7.982;2022-07-04T13:22:25;5.05;;;1.30;;
47365;SDS011;33105;47.964;7.982;2022-07-04T13:25:27;6.20;;;1.10;;
47365;SDS011;33105;47.964;7.982;2022-07-04T13:28:29;10.23;;;1.48;;
47365;SDS011;33105;47.964;7.982;2022-07-04T13:31:30;5.68;;;1.23;;
47365;SDS011;33105;47.964;7.982;2022-07-04T13:34:32;2.88;;;1.05;;
47365;SDS011;33105;47.964;7.982;2022-07-04T13:37:33;3.78;;;0.90;;
47365;SDS011;33105;47.964;7.982;2022-07-04T13:40:35;1.83;;;1.00;;
47365;SDS011;33105;47.964;7.982;2022-07-04T13:43:36;7.28;;;1.40;;
47365;SDS011;33105;47.964;7.982;2022-07-04T13:46:38;2.20;;;1.02;;
47365;SDS011;33105;47.964;7.982;2022-07-04T13:49:39;3.65;;;1.20;;
47365;SDS011;33105;47.964;7.982;2022-07-04T13:52:41;2.47;;;1.00;;
47365;SDS011;33105;47.964;7.982;2022-07-04T13:55:42;2.30;;;0.93;;
47365;SDS011;33105;47.964;7.982;2022-07-04T13:58:45;2.90;;;1.20;;
47365;SDS011;33105;47.964;7.982;2022-07-04T14:01:48;3.25;;;1.05;;
47365;SDS011;33105;47.964;7.982;2022-07-04T14:04:49;8.80;;;1.20;;
47365;SDS011;33105;47.964;7.982;2022-07-04T14:07:51;6.90;;;1.15;;
47365;SDS011;33105;47.964;7.982;2022-07-04T14:10:52;1.80;;;1.00;;
47365;SDS011;33105;47.964;7.982;2022-07-04T14:13:54;2.50;;;1.30;;
47365;SDS011;33105;47.964;7.982;2022-07-04T14:16:56;6.93;;;1.17;;
47365;SDS011;33105;47.964;7.982;2022-07-04T14:19:57;4.65;;;1.00;;
47365;SDS011;33105;47.964;7.982;2022-07-04T14:22:58;7.68;;;1.27;;
47365;SDS011;33105;47.964;7.982;2022-07-04T14:26:00;3.90;;;1.23;;
47365;SDS011;33105;47.964;7.982;2022-07-04T14:29:02;4.68;;;1.20;;
47365;SDS011;33105;47.964;7.982;2022-07-04T14:32:03;3.00;;;1.15;;
47365;SDS011;33105;47.964;7.982;2022-07-04T14:35:05;4.78;;;1.27;;
47365;SDS011;33105;47.964;7.982;2022-07-04T14:38:06;9.70;;;1.30;;
47365;SDS011;33105;47.964;7.982;2022-07-04T14:41:08;5.78;;;1.27;;
47365;SDS011;33105;47.964;7.982;2022-07-04T14:44:13;13.63;;;1.45;;
47365;SDS011;33105;47.964;7.982;2022-07-04T14:47:15;5.50;;;1.65;;
47365;SDS011;33105;47.964;7.982;2022-07-04T14:50:17;4.28;;;1.00;;
47365;SDS011;33105;47.964;7.982;2022-07-04T14:53:19;3.88;;;1.20;;
47365;SDS011;33105;47.964;7.982;2022-07-04T14:56:21;5.10;;;1.05;;
47365;SDS011;33105;47.964;7.982;2022-07-04T14:59:22;6.72;;;1.15;;
47365;SDS011;33105;47.964;7.982;2022-07-04T15:02:24;3.85;;;1.05;;
47365;SDS011;33105;47.964;7.982;2022-07-04T15:05:25;4.45;;;0.90;;
47365;SDS011;33105;47.964;7.982;2022-07-04T15:08:27;2.30;;;1.08;;
47365;SDS011;33105;47.964;7.982;2022-07-04T15:11:28;3.80;;;0.95;;
47365;SDS011;33105;47.964;7.982;2022-07-04T15:14:30;3.50;;;1.23;;
47365;SDS011;33105;47.964;7.982;2022-07-04T15:17:31;5.40;;;1.00;;
47365;SDS011;33105;47.964;7.982;2022-07-04T15:20:33;7.35;;;1.20;;
47365;SDS011;33105;47.964;7.982;2022-07-04T15:23:52;5.75;;;1.00;;
47365;SDS011;33105;47.964;7.982;2022-07-04T15:27:12;3.35;;;1.20;;
47365;SDS011;33105;47.964;7.982;2022-07-04T15:30:13;3.90;;;0.90;;
47365;SDS011;33105;47.964;7.982;2022-07-04T15:33:14;5.15;;;1.10;;
47365;SDS011;33105;47.964;7.982;2022-07-04T15:36:15;3.97;;;1.17;;
47365;SDS011;33105;47.964;7.982;2022-07-04T15:39:17;2.33;;;1.08;;
47365;SDS011;33105;47.964;7.982;2022-07-04T15:42:18;5.40;;;1.20;;
47365;SDS011;33105;47.964;7.982;2022-07-04T15:45:19;5.35;;;1.08;;
47365;SDS011;33105;47.964;7.982;2022-07-04T15:48:21;2.75;;;0.85;;
47365;SDS011;33105;47.964;7.982;2022-07-04T15:51:22;3.55;;;1.20;;
47365;SDS011;33105;47.964;7.982;2022-07-04T15:54:24;2.88;;;1.10;;
47365;SDS011;33105;47.964;7.982;2022-07-04T15:57:25;2.78;;;1.05;;
47365;SDS011;33105;47.964;7.982;2022-07-04T16:00:27;2.00;;;1.02;;
47365;SDS011;33105;47.964;7.982;2022-07-04T16:03:29;5.43;;;1.20;;
47365;SDS011;33105;47.964;7.982;2022-07-04T16:06:31;2.88;;;1.08;;
47365;SDS011;33105;47.964;7.982;2022-07-04T16:09:36;1.98;;;0.90;;
47365;SDS011;33105;47.964;7.982;2022-07-04T16:12:37;5.03;;;1.30;;
47365;SDS011;33105;47.964;7.982;2022-07-04T16:15:38;3.00;;;0.90;;
47365;SDS011;33105;47.964;7.982;2022-07-04T16:18:39;3.28;;;1.30;;
47365;SDS011;33105;47.964;7.982;2022-07-04T16:21:40;1.70;;;0.90;;
47365;SDS011;33105;47.964;7.982;2022-07-04T16:24:42;2.35;;;0.90;;
47365;SDS011;33105;47.964;7.982;2022-07-04T16:27:43;4.07;;;0.90;;
47365;SDS011;33105;47.964;7.982;2022-07-04T16:30:44;5.72;;;1.08;;
47365;SDS011;33105;47.964;7.982;2022-07-04T16:33:46;3.60;;;1.15;;
47365;SDS011;33105;47.964;7.982;2022-07-04T16:36:48;2.80;;;1.10;;
47365;SDS011;33105;47.964;7.982;2022-07-04T16:39:50;2.63;;;0.95;;
47365;SDS011;33105;47.964;7.982;2022-07-04T16:42:51;2.72;;;1.20;;
47365;SDS011;33105;47.964;7.982;2022-07-04T16:45:52;6.15;;;1.10;;
47365;SDS011;33105;47.964;7.982;2022-07-04T16:48:53;2.95;;;0.98;;
47365;SDS011;33105;47.964;7.982;2022-07-04T16:51:55;3.90;;;1.23;;
47365;SDS011;33105;47.964;7.982;2022-07-04T16:54:56;3.17;;;1.15;;
47365;SDS011;33105;47.964;7.982;2022-07-04T16:57:58;3.58;;;1.27;;
47365;SDS011;33105;47.964;7.982;2022-07-04T17:00:59;3.38;;;1.00;;
47365;SDS011;33105;47.964;7.982;2022-07-04T17:04:00;2.25;;;1.33;;
47365;SDS011;33105;47.964;7.982;2022-07-04T17:07:02;3.95;;;1.02;;
47365;SDS011;33105;47.964;7.982;2022-07-04T17:10:04;7.78;;;1.10;;
47365;SDS011;33105;47.964;7.982;2022-07-04T17:13:05;2.70;;;1.20;;
47365;SDS011;33105;47.964;7.982;2022-07-04T17:16:07;2.67;;;1.15;;
47365;SDS011;33105;47.964;7.982;2022-07-04T17:19:09;3.92;;;1.30;;
47365;SDS011;33105;47.964;7.982;2022-07-04T17:22:10;5.00;;;1.38;;
47365;SDS011;33105;47.964;7.982;2022-07-04T17:25:12;2.58;;;1.30;;
47365;SDS011;33105;47.964;7.982;2022-07-04T17:28:13;4.55;;;1.27;;
47365;SDS011;33105;47.964;7.982;2022-07-04T17:31:14;6.63;;;1.55;;
47365;SDS011;33105;47.964;7.982;2022-07-04T17:34:15;3.50;;;1.20;;
47365;SDS011;33105;47.964;7.982;2022-07-04T17:37:18;4.13;;;1.00;;
47365;SDS011;33105;47.964;7.982;2022-07-04T17:40:19;3.05;;;1.10;;
47365;SDS011;33105;47.964;7.982;2022-07-04T17:43:21;4.43;;;1.10;;
47365;SDS011;33105;47.964;7.982;2022-07-04T17:46:22;4.88;;;1.38;;
47365;SDS011;33105;47.964;7.982;2022-07-04T17:49:23;2.97;;;1.25;;
47365;SDS011;33105;47.964;7.982;2022-07-04T17:52:24;6.32;;;1.00;;
47365;SDS011;33105;47.964;7.982;2022-07-04T17:55:26;2.08;;;1.10;;
47365;SDS011;33105;47.964;7.982;2022-07-04T17:58:27;4.93;;;1.10;;
47365;SDS011;33105;47.964;7.982;2022-07-04T18:01:29;3.80;;;1.50;;
47365;SDS011;33105;47.964;7.982;2022-07-04T18:04:30;2.63;;;1.40;;
47365;SDS011;33105;47.964;7.982;2022-07-04T18:07:31;5.65;;;1.55;;
47365;SDS011;33105;47.964;7.982;2022-07-04T18:10:33;5.18;;;1.60;;
47365;SDS011;33105;47.964;7.982;2022-07-04T18:13:35;2.65;;;1.58;;
47365;SDS011;33105;47.964;7.982;2022-07-04T18:16:36;3.95;;;1.60;;
47365;SDS011;33105;47.964;7.982;2022-07-04T18:19:38;3.42;;;1.17;;
47365;SDS011;33105;47.964;7.982;2022-07-04T18:22:40;2.35;;;1.33;;
47365;SDS011;33105;47.964;7.982;2022-07-04T18:25:42;3.05;;;1.40;;
47365;SDS011;33105;47.964;7.982;2022-07-04T18:28:44;3.88;;;1.27;;
47365;SDS011;33105;47.964;7.982;2022-07-04T18:31:49;2.40;;;1.17;;
47365;SDS011;33105;47.964;7.982;2022-07-04T18:34:54;4.68;;;1.38;;
47365;SDS011;33105;47.964;7.982;2022-07-04T18:37:55;7.20;;;1.30;;